createdAt,value
2017-12-02T00:00:10.192Z,16.77
2017-12-02T00:02:45.220Z,16.27
2017-12-02T00:05:15.211Z,15.63
2017-12-02T00:07:44.761Z,15.30
2017-12-02T00:10:14.349Z,13.50
2017-12-02T00:12:44.060Z,14.45
2017-12-02T00:15:14.695Z,17.20
2017-12-02T00:17:47.268Z,16.43
2017-12-02T00:20:23.195Z,14.17
2017-12-02T00:22:55.339Z,13.13
2017-12-02T00:25:25.063Z,13.23
2017-12-02T00:27:55.325Z,15.68
2017-12-02T00:30:24.776Z,15.73
2017-12-02T00:32:55.066Z,15.70
2017-12-02T00:35:25.599Z,13.93
2017-12-02T00:37:56.463Z,15.57
2017-12-02T00:40:27.099Z,19.23
2017-12-02T00:42:57.560Z,19.02
2017-12-02T00:45:27.225Z,11.33
2017-12-02T00:48:07.915Z,12.05
2017-12-02T00:50:38.535Z,13.38
2017-12-02T00:53:08.840Z,14.13
2017-12-02T00:55:38.888Z,13.33
2017-12-02T00:58:09.537Z,14.67
2017-12-02T01:00:41.388Z,12.92
2017-12-02T01:03:32.524Z,17.17
2017-12-02T01:06:02.799Z,17.48
2017-12-02T01:08:41.089Z,18.17
2017-12-02T01:13:53.789Z,15.15
2017-12-02T01:16:24.474Z,14.45
2017-12-02T01:19:04.314Z,16.65
2017-12-02T01:21:36.043Z,15.13
2017-12-02T01:24:15.346Z,13.70
2017-12-02T01:26:44.848Z,16.57
2017-12-02T01:29:14.513Z,17.20
2017-12-02T01:31:45.765Z,16.27
2017-12-02T01:34:16.444Z,13.93
2017-12-02T01:36:46.600Z,14.43
2017-12-02T01:39:16.231Z,16.50
2017-12-02T01:41:49.165Z,12.90
2017-12-02T01:47:08.572Z,14.10
2017-12-02T01:49:40.969Z,16.17
2017-12-02T01:52:22.900Z,15.10
2017-12-02T01:54:57.057Z,14.77
2017-12-02T01:57:45.418Z,13.95
2017-12-02T02:00:15.393Z,14.35
2017-12-02T02:02:47.454Z,13.87
2017-12-02T02:05:19.712Z,14.15
2017-12-02T02:07:50.241Z,14.82
2017-12-02T02:10:20.116Z,13.57
2017-12-02T02:12:57.430Z,15.67
2017-12-02T02:15:30.206Z,13.33
2017-12-02T02:18:02.883Z,13.03
2017-12-02T02:20:34.184Z,14.63
2017-12-02T02:23:11.165Z,14.68
2017-12-02T02:25:41.037Z,12.70
2017-12-02T02:28:10.764Z,13.00
2017-12-02T02:30:41.320Z,13.20
2017-12-02T02:33:10.767Z,13.73
2017-12-02T02:35:40.461Z,13.63
2017-12-02T02:38:10.208Z,15.27
2017-12-02T02:40:39.709Z,14.68
2017-12-02T02:43:10.569Z,15.70
2017-12-02T02:45:40.260Z,13.35
2017-12-02T02:48:10.709Z,14.63
2017-12-02T02:50:40.824Z,15.17
2017-12-02T02:53:14.096Z,14.13
2017-12-02T02:55:43.892Z,15.98
2017-12-02T02:58:13.584Z,14.77
2017-12-02T03:00:43.143Z,16.08
2017-12-02T03:03:12.810Z,15.35
2017-12-02T03:05:43.165Z,15.17
2017-12-02T03:08:13.856Z,12.87
2017-12-02T03:10:44.198Z,14.00
2017-12-02T03:13:24.390Z,13.30
2017-12-02T03:15:54.228Z,14.95
2017-12-02T03:18:25.123Z,15.80
2017-12-02T03:20:54.818Z,13.00
2017-12-02T03:23:29.154Z,15.43
2017-12-02T03:26:00.210Z,12.73
2017-12-02T03:28:30.188Z,11.33
2017-12-02T03:31:19.646Z,13.80
2017-12-02T03:36:47.321Z,13.70
2017-12-02T03:39:18.795Z,13.62
2017-12-02T03:41:49.324Z,14.83
2017-12-02T03:44:21.778Z,11.43
2017-12-02T03:46:52.734Z,12.83
2017-12-02T03:49:34.834Z,13.97
2017-12-02T03:52:10.510Z,20.57
2017-12-02T03:58:15.172Z,12.77
2017-12-02T04:01:01.238Z,15.73
2017-12-02T04:03:51.045Z,13.47
2017-12-02T04:09:42.012Z,14.87
2017-12-02T04:12:41.041Z,13.80
2017-12-02T04:21:21.285Z,16.20
2017-12-02T04:24:06.815Z,13.73
2017-12-02T04:39:29.342Z,13.23
2017-12-02T04:42:37.572Z,12.93
2017-12-02T04:50:42.489Z,15.05
2017-12-02T04:53:37.461Z,13.47
2017-12-02T04:59:29.154Z,12.50
2017-12-02T05:01:59.369Z,14.32
2017-12-02T05:04:34.839Z,14.70
2017-12-02T05:07:05.800Z,12.40
2017-12-02T05:12:14.848Z,16.63
2017-12-02T05:14:46.807Z,14.23
2017-12-02T05:17:16.955Z,15.68
2017-12-02T05:22:22.909Z,13.53
2017-12-02T05:24:53.918Z,17.63
2017-12-02T05:27:24.311Z,14.37
2017-12-02T05:29:53.921Z,13.30
2017-12-02T05:32:24.255Z,13.05
2017-12-02T05:34:54.914Z,14.43
2017-12-02T05:37:24.611Z,12.77
2017-12-02T05:39:58.330Z,13.77
2017-12-02T05:42:28.970Z,13.80
2017-12-02T05:45:01.142Z,13.27
2017-12-02T05:47:30.807Z,13.90
2017-12-02T05:50:00.288Z,12.90
2017-12-02T05:52:35.653Z,14.97
2017-12-02T05:55:06.007Z,15.10
2017-12-02T05:57:35.781Z,12.43
2017-12-02T06:00:05.623Z,14.23
2017-12-02T06:02:36.993Z,13.13
2017-12-02T06:05:06.623Z,13.00
2017-12-02T06:07:36.273Z,15.40
2017-12-02T06:10:06.814Z,13.10
2017-12-02T06:12:37.110Z,14.00
2017-12-02T06:15:07.301Z,13.50
2017-12-02T06:17:42.821Z,14.57
2017-12-02T06:20:13.031Z,13.07
2017-12-02T06:22:43.242Z,13.83
2017-12-02T06:25:12.977Z,13.60
2017-12-02T06:27:48.938Z,15.73
2017-12-02T06:30:19.045Z,14.00
2017-12-02T06:32:48.917Z,12.40
2017-12-02T06:35:19.876Z,16.27
2017-12-02T06:37:49.572Z,15.03
2017-12-02T06:40:21.272Z,13.90
2017-12-02T06:42:51.248Z,14.93
2017-12-02T06:45:21.305Z,14.10
2017-12-02T06:47:51.251Z,16.30
2017-12-02T06:50:22.333Z,14.18
2017-12-02T06:52:52.795Z,12.90
2017-12-02T06:55:24.696Z,13.43
2017-12-02T06:57:54.488Z,13.83
2017-12-02T07:00:25.000Z,13.43
2017-12-02T07:02:55.588Z,15.10
2017-12-02T07:05:25.223Z,15.43
2017-12-02T07:07:55.286Z,14.43
2017-12-02T07:10:24.995Z,16.20
2017-12-02T07:12:54.821Z,16.57
2017-12-02T07:15:25.541Z,17.83
2017-12-02T07:17:55.000Z,21.53
2017-12-02T07:20:25.319Z,18.87
2017-12-02T07:22:54.822Z,22.87
2017-12-02T07:25:25.088Z,23.13
2017-12-02T07:27:55.175Z,20.50
2017-12-02T07:30:24.744Z,18.63
2017-12-02T07:32:55.298Z,16.63
2017-12-02T07:35:25.306Z,17.27
2017-12-02T07:37:55.370Z,16.07
2017-12-02T07:40:25.048Z,18.00
2017-12-02T07:42:54.866Z,16.80
2017-12-02T07:45:25.182Z,19.37
2017-12-02T07:47:55.082Z,19.43
2017-12-02T07:50:25.822Z,20.07
2017-12-02T07:52:55.538Z,17.27
2017-12-02T07:55:25.665Z,20.97
2017-12-02T07:57:56.904Z,20.73
2017-12-02T08:00:26.819Z,19.43
2017-12-02T08:02:57.107Z,22.40
2017-12-02T08:05:27.708Z,21.07
2017-12-02T08:07:57.683Z,25.93
2017-12-02T08:10:28.189Z,19.97
2017-12-02T08:12:58.403Z,18.90
2017-12-02T08:15:28.951Z,16.53
2017-12-02T08:17:59.618Z,16.23
2017-12-02T08:20:29.827Z,18.43
2017-12-02T08:23:03.110Z,15.53
2017-12-02T08:25:33.657Z,21.93
2017-12-02T08:28:04.409Z,14.90
2017-12-02T08:30:35.198Z,17.33
2017-12-02T08:33:06.647Z,16.50
2017-12-02T08:35:36.393Z,15.83
2017-12-02T08:38:06.919Z,14.37
2017-12-02T08:40:37.166Z,16.48
2017-12-02T08:43:07.132Z,15.17
2017-12-02T08:45:36.803Z,14.52
2017-12-02T08:48:06.508Z,15.40
2017-12-02T08:50:36.783Z,14.27
2017-12-02T08:53:07.144Z,12.27
2017-12-02T08:55:36.871Z,12.83
2017-12-02T08:58:07.195Z,13.07
2017-12-02T09:00:36.794Z,13.13
2017-12-02T09:03:06.632Z,10.87
2017-12-02T09:05:47.270Z,12.63
2017-12-02T09:08:17.041Z,13.30
2017-12-02T09:10:48.524Z,14.57
2017-12-02T09:13:18.774Z,9.80
2017-12-02T09:15:49.345Z,10.67
2017-12-02T09:18:20.863Z,8.47
2017-12-02T09:20:52.163Z,9.07
2017-12-02T09:23:21.979Z,11.07
2017-12-02T09:25:52.478Z,9.17
2017-12-02T09:28:23.265Z,7.70
2017-12-02T09:30:53.600Z,8.43
2017-12-02T09:33:23.607Z,9.10
2017-12-02T09:35:53.668Z,12.50
2017-12-02T09:38:24.936Z,11.12
2017-12-02T09:40:55.812Z,9.30
2017-12-02T09:43:27.112Z,9.35
2017-12-02T09:45:57.318Z,9.10
2017-12-02T09:48:27.293Z,10.10
2017-12-02T09:50:59.101Z,12.32
2017-12-02T09:53:28.897Z,9.03
2017-12-02T09:55:59.588Z,12.52
2017-12-02T09:58:29.945Z,9.63
2017-12-02T10:00:59.968Z,10.80
2017-12-02T10:03:29.829Z,11.40
2017-12-02T10:06:01.229Z,12.30
2017-12-02T10:08:32.115Z,8.33
2017-12-02T10:11:02.697Z,10.75
2017-12-02T10:13:33.406Z,9.07
2017-12-02T10:16:03.409Z,8.37
2017-12-02T10:18:36.294Z,9.63
2017-12-02T10:21:07.168Z,11.30
2017-12-02T10:23:37.646Z,9.53
2017-12-02T10:26:07.892Z,9.10
2017-12-02T10:28:37.869Z,10.13
2017-12-02T10:31:08.497Z,9.07
2017-12-02T10:33:38.662Z,8.50
2017-12-02T10:36:08.324Z,7.30
2017-12-02T10:38:38.473Z,8.37
2017-12-02T10:41:08.803Z,8.17
2017-12-02T10:43:38.624Z,8.53
2017-12-02T10:46:09.136Z,7.63
2017-12-02T10:48:39.092Z,8.60
2017-12-02T10:51:10.094Z,9.70
2017-12-02T10:53:39.916Z,8.93
2017-12-02T10:56:11.176Z,8.33
2017-12-02T10:58:41.913Z,8.17
2017-12-02T11:01:12.575Z,11.00
2017-12-02T11:03:43.300Z,7.90
2017-12-02T11:06:13.846Z,8.17
2017-12-02T11:08:45.223Z,7.27
2017-12-02T11:11:30.424Z,7.23
2017-12-02T11:14:00.793Z,7.63
2017-12-02T11:16:30.495Z,10.10
2017-12-02T11:19:00.917Z,12.83
2017-12-02T11:21:31.068Z,10.63
2017-12-02T11:24:01.515Z,13.27
2017-12-02T11:26:31.135Z,11.50
2017-12-02T11:29:01.535Z,11.43
2017-12-02T11:31:31.287Z,11.33
2017-12-02T11:34:00.884Z,11.77
2017-12-02T11:36:30.552Z,11.37
2017-12-02T11:39:00.742Z,13.87
2017-12-02T11:41:31.449Z,15.33
2017-12-02T11:44:01.931Z,16.53
2017-12-02T11:46:32.743Z,18.07
2017-12-02T11:49:02.974Z,16.43
2017-12-02T11:51:33.735Z,15.67
2017-12-02T11:54:04.894Z,15.10
2017-12-02T11:56:34.833Z,21.10
2017-12-02T11:59:06.279Z,18.47
2017-12-02T12:01:36.690Z,16.63
2017-12-02T12:04:06.631Z,18.30
2017-12-02T12:06:36.998Z,17.37
2017-12-02T12:09:06.744Z,18.00
2017-12-02T12:11:36.645Z,17.17
2017-12-02T12:14:06.999Z,16.13
2017-12-02T12:16:37.126Z,16.40
2017-12-02T12:19:06.997Z,16.97
2017-12-02T12:21:36.823Z,16.80
2017-12-02T12:24:06.725Z,18.43
2017-12-02T12:26:37.288Z,17.43
2017-12-02T12:29:09.668Z,18.63
2017-12-02T12:31:41.525Z,17.57
2017-12-02T12:34:11.127Z,18.30
2017-12-02T12:36:42.763Z,19.67
2017-12-02T12:39:13.985Z,19.53
2017-12-02T12:41:49.571Z,19.50
2017-12-02T12:44:19.131Z,18.90
2017-12-02T12:46:48.654Z,22.87
2017-12-02T12:49:19.077Z,19.33
2017-12-02T12:51:49.253Z,17.67
2017-12-02T12:54:19.684Z,19.03
2017-12-02T12:56:50.531Z,18.13
2017-12-02T12:59:20.376Z,17.60
2017-12-02T13:01:50.887Z,17.50
2017-12-02T13:04:20.852Z,18.47
2017-12-02T13:06:50.900Z,19.70
2017-12-02T13:09:21.449Z,18.60
2017-12-02T13:11:50.957Z,17.30
2017-12-02T13:14:20.727Z,18.17
2017-12-02T13:16:51.054Z,17.67
2017-12-02T13:19:20.692Z,18.57
2017-12-02T13:21:50.641Z,18.77
2017-12-02T13:24:20.877Z,17.50
2017-12-02T13:26:50.633Z,17.70
2017-12-02T13:29:20.498Z,17.83
2017-12-02T13:31:50.850Z,18.10
2017-12-02T13:34:20.517Z,16.97
2017-12-02T13:36:50.073Z,17.47
2017-12-02T13:39:19.970Z,16.97
2017-12-02T13:41:49.639Z,21.23
2017-12-02T13:44:19.171Z,20.00
2017-12-02T13:46:48.700Z,18.77
2017-12-02T13:49:18.360Z,19.53
2017-12-02T13:51:48.222Z,19.40
2017-12-02T13:54:18.135Z,19.37
2017-12-02T13:56:50.189Z,19.10
2017-12-02T13:59:20.457Z,21.87
2017-12-02T14:01:51.418Z,18.53
2017-12-02T14:04:21.664Z,18.33
2017-12-02T14:06:51.130Z,18.00
2017-12-02T14:09:21.950Z,16.93
2017-12-02T14:11:51.276Z,20.03
2017-12-02T14:14:20.815Z,18.30
2017-12-02T14:16:52.465Z,16.57
2017-12-02T14:19:21.990Z,18.20
2017-12-02T14:21:51.882Z,17.90
2017-12-02T14:24:21.846Z,18.60
2017-12-02T14:26:51.567Z,18.70
2017-12-02T14:29:21.914Z,19.90
2017-12-02T14:31:51.690Z,20.05
2017-12-02T14:34:21.763Z,18.15
2017-12-02T14:36:51.627Z,19.33
2017-12-02T14:39:21.292Z,18.87
2017-12-02T14:41:51.734Z,19.20
2017-12-02T14:44:22.974Z,18.57
2017-12-02T14:46:52.915Z,17.08
2017-12-02T14:49:22.598Z,18.23
2017-12-02T14:51:54.605Z,20.87
2017-12-02T14:54:24.663Z,19.60
2017-12-02T14:56:55.007Z,19.23
2017-12-02T14:59:25.984Z,18.20
2017-12-02T15:01:55.728Z,19.10
2017-12-02T15:04:26.606Z,18.67
2017-12-02T15:06:59.041Z,19.43
2017-12-02T15:09:29.636Z,18.37
2017-12-02T15:11:59.524Z,21.63
2017-12-02T15:14:30.238Z,17.25
2017-12-02T15:17:01.549Z,20.87
2017-12-02T15:19:31.607Z,24.77
2017-12-02T15:22:01.365Z,21.37
2017-12-02T15:24:31.674Z,17.83
2017-12-02T15:27:02.852Z,18.93
2017-12-02T15:29:33.858Z,20.63
2017-12-02T15:32:03.458Z,19.33
2017-12-02T15:34:33.006Z,22.33
2017-12-02T15:37:02.770Z,20.57
2017-12-02T15:39:33.156Z,20.40
2017-12-02T15:42:02.979Z,23.27
2017-12-02T15:44:33.090Z,21.90
2017-12-02T15:47:03.073Z,21.27
2017-12-02T15:49:32.974Z,22.80
2017-12-02T15:52:03.087Z,21.77
2017-12-02T15:54:33.214Z,23.17
2017-12-02T15:57:03.735Z,21.17
2017-12-02T15:59:33.436Z,22.93
2017-12-02T16:02:04.043Z,21.67
2017-12-02T16:04:33.664Z,21.50
2017-12-02T16:07:03.886Z,25.17
2017-12-02T16:09:34.531Z,24.17
2017-12-02T16:12:04.489Z,25.70
2017-12-02T16:14:34.842Z,24.27
2017-12-02T16:17:04.680Z,24.27
2017-12-02T16:19:34.086Z,24.90
2017-12-02T16:22:03.781Z,29.63
2017-12-02T16:24:34.106Z,28.13
2017-12-02T16:27:04.699Z,29.97
2017-12-02T16:29:34.259Z,34.67
2017-12-02T16:32:04.582Z,41.57
2017-12-02T16:34:34.447Z,39.23
2017-12-02T16:37:04.342Z,36.80
2017-12-02T16:39:35.151Z,35.73
2017-12-02T16:42:05.170Z,35.93
2017-12-02T16:44:34.839Z,34.73
2017-12-02T16:47:04.486Z,29.65
2017-12-02T16:49:34.127Z,28.80
2017-12-02T16:52:03.770Z,36.27
2017-12-02T16:54:35.537Z,30.03
2017-12-02T16:57:05.868Z,30.57
2017-12-02T16:59:35.717Z,31.60
2017-12-02T17:02:06.717Z,28.10
2017-12-02T17:04:36.373Z,26.33
2017-12-02T17:07:06.306Z,27.00
2017-12-02T17:09:35.828Z,27.80
2017-12-02T17:12:05.463Z,28.00
2017-12-02T17:14:35.227Z,25.10
2017-12-02T17:17:05.156Z,27.50
2017-12-02T17:19:36.156Z,32.50
2017-12-02T17:22:07.462Z,27.77
2017-12-02T17:24:37.697Z,27.00
2017-12-02T17:27:08.933Z,26.20
2017-12-02T17:29:38.920Z,27.03
2017-12-02T17:32:08.853Z,23.67
2017-12-02T17:34:39.015Z,24.10
2017-12-02T17:37:09.386Z,25.48
2017-12-02T17:39:39.246Z,24.00
2017-12-02T17:42:10.753Z,23.70
2017-12-02T17:44:42.000Z,22.73
2017-12-02T17:47:12.002Z,21.30
2017-12-02T17:49:42.155Z,23.60
2017-12-02T17:52:12.073Z,25.77
2017-12-02T17:54:42.180Z,22.43
2017-12-02T17:57:11.912Z,22.80
2017-12-02T17:59:41.420Z,23.77
2017-12-02T18:02:11.416Z,26.90
2017-12-02T18:04:41.933Z,26.15
2017-12-02T18:07:12.088Z,28.10
2017-12-02T18:09:41.989Z,27.23
2017-12-02T18:12:12.256Z,29.37
2017-12-02T18:14:42.657Z,30.25
2017-12-02T18:17:12.899Z,27.37
2017-12-02T18:19:43.251Z,28.10
2017-12-02T18:22:12.915Z,30.87
2017-12-02T18:24:43.026Z,31.30
2017-12-02T18:27:13.792Z,27.53
2017-12-02T18:29:43.584Z,31.07
2017-12-02T18:32:13.416Z,39.93
2017-12-02T18:34:43.000Z,35.90
2017-12-02T18:37:13.806Z,41.07
2017-12-02T18:39:43.533Z,43.10
2017-12-02T18:42:14.598Z,42.00
2017-12-02T18:44:44.254Z,46.57
2017-12-02T18:47:16.414Z,40.70
2017-12-02T18:49:46.288Z,42.87
2017-12-02T18:52:17.680Z,39.47
2017-12-02T18:54:47.204Z,36.20
2017-12-02T18:57:20.568Z,32.80
2017-12-02T18:59:52.220Z,31.67
2017-12-02T19:02:23.066Z,35.90
2017-12-02T19:04:53.518Z,29.37
2017-12-02T19:07:23.992Z,33.10
2017-12-02T19:09:53.396Z,30.60
2017-12-02T19:12:23.747Z,29.20
2017-12-02T19:14:53.885Z,30.43
2017-12-02T19:17:24.772Z,30.77
2017-12-02T19:19:54.849Z,29.87
2017-12-02T19:22:25.212Z,28.73
2017-12-02T19:24:55.802Z,31.40
2017-12-02T19:27:26.138Z,25.90
2017-12-02T19:29:56.650Z,28.45
2017-12-02T19:32:27.229Z,32.03
2017-12-02T19:34:57.589Z,30.33
2017-12-02T19:37:27.285Z,29.25
2017-12-02T19:39:57.012Z,28.90
2017-12-02T19:42:26.508Z,25.88
2017-12-02T19:44:56.294Z,26.17
2017-12-02T19:47:28.543Z,25.37
2017-12-02T19:49:58.281Z,26.67
2017-12-02T19:52:28.852Z,25.55
2017-12-02T19:54:58.481Z,30.62
2017-12-02T19:57:30.397Z,25.87
2017-12-02T20:00:00.578Z,24.02
2017-12-02T20:02:31.278Z,26.30
2017-12-02T20:05:01.426Z,27.60
2017-12-02T20:07:32.207Z,28.00
2017-12-02T20:10:02.533Z,30.42
2017-12-02T20:12:33.325Z,29.63
2017-12-02T20:15:03.051Z,31.05
2017-12-02T20:17:35.086Z,28.27
2017-12-02T20:20:04.964Z,31.05
2017-12-02T20:22:34.639Z,29.83
2017-12-02T20:25:04.757Z,30.47
2017-12-02T20:27:36.519Z,30.60
2017-12-02T20:30:06.801Z,28.93
2017-12-02T20:32:37.801Z,28.60
2017-12-02T20:35:08.153Z,30.53
2017-12-02T20:37:38.663Z,28.80
2017-12-02T20:40:08.769Z,30.50
2017-12-02T20:42:38.438Z,29.55
2017-12-02T20:45:08.637Z,31.30
2017-12-02T20:47:40.922Z,34.03
2017-12-02T20:50:10.544Z,31.80
2017-12-02T20:52:40.880Z,35.78
2017-12-02T20:55:10.399Z,32.70
2017-12-02T20:57:41.125Z,32.37
2017-12-02T21:00:10.556Z,34.17
2017-12-02T21:02:41.521Z,33.92
2017-12-02T21:05:12.253Z,36.63
2017-12-02T21:07:43.393Z,29.73
2017-12-02T21:10:12.815Z,26.83
2017-12-02T21:12:44.579Z,25.63
2017-12-02T21:15:16.181Z,25.97
2017-12-02T21:17:46.041Z,29.40
2017-12-02T21:20:15.882Z,27.17
2017-12-02T21:22:46.530Z,28.35
2017-12-02T21:25:16.108Z,26.73
2017-12-02T21:27:47.845Z,25.20
2017-12-02T21:30:17.448Z,25.47
2017-12-02T21:32:48.668Z,26.20
2017-12-02T21:35:18.164Z,27.97
2017-12-02T21:37:49.639Z,25.30
2017-12-02T21:40:19.210Z,29.10
2017-12-02T21:42:50.539Z,26.70
2017-12-02T21:45:20.174Z,29.87
2017-12-02T21:47:51.236Z,26.00
2017-12-02T21:50:21.013Z,27.05
2017-12-02T21:52:52.641Z,29.67
2017-12-02T21:55:23.510Z,25.37
2017-12-02T21:57:54.399Z,26.33
2017-12-02T22:00:23.851Z,25.77
2017-12-02T22:02:55.274Z,21.12
2017-12-02T22:05:25.986Z,25.57
2017-12-02T22:07:56.489Z,24.20
2017-12-02T22:10:26.883Z,23.40
2017-12-02T22:12:56.843Z,20.10
2017-12-02T22:15:27.202Z,23.53
2017-12-02T22:17:58.209Z,22.97
2017-12-02T22:20:28.920Z,23.10
2017-12-02T22:22:58.678Z,22.63
2017-12-02T22:25:28.654Z,25.10
2017-12-02T22:28:00.720Z,22.33
2017-12-02T22:30:30.385Z,21.47
2017-12-02T22:33:01.224Z,25.60
2017-12-02T22:35:30.887Z,22.03
2017-12-02T22:38:02.425Z,20.17
2017-12-02T22:40:32.733Z,19.65
2017-12-02T22:43:03.218Z,23.23
2017-12-02T22:45:32.814Z,21.87
2017-12-02T22:48:03.796Z,29.12
2017-12-02T22:50:33.695Z,29.73
2017-12-02T22:53:05.646Z,36.23
2017-12-02T22:55:35.284Z,38.83
2017-12-02T22:58:05.688Z,36.53
2017-12-02T23:00:40.102Z,36.50
2017-12-02T23:03:10.431Z,36.83
2017-12-02T23:05:40.523Z,35.47
2017-12-02T23:08:10.452Z,32.72
2017-12-02T23:10:43.081Z,33.88
2017-12-02T23:13:13.917Z,34.90
2017-12-02T23:15:44.331Z,30.87
2017-12-02T23:18:15.462Z,30.13
2017-12-02T23:20:46.764Z,32.13
2017-12-02T23:23:18.611Z,29.40
2017-12-02T23:25:48.794Z,27.53
2017-12-02T23:28:20.029Z,31.47
2017-12-02T23:30:50.520Z,30.03
2017-12-02T23:33:28.546Z,26.97
2017-12-02T23:35:59.493Z,29.20
2017-12-02T23:38:29.706Z,27.80
2017-12-02T23:40:59.709Z,27.98
2017-12-02T23:43:32.479Z,28.55
2017-12-02T23:46:03.736Z,28.73
2017-12-02T23:48:39.692Z,25.73
2017-12-02T23:51:09.559Z,26.20
2017-12-02T23:53:41.677Z,28.02
2017-12-02T23:56:12.648Z,29.45
2017-12-02T23:58:44.986Z,28.95
